createdAt,value
2017-11-07T00:00:34.356Z,84.00
2017-11-07T00:03:03.235Z,82.00
2017-11-07T00:05:32.459Z,80.20
2017-11-07T00:08:01.901Z,80.20
2017-11-07T00:10:31.976Z,78.60
2017-11-07T00:13:01.692Z,78.60
2017-11-07T00:15:31.239Z,78.60
2017-11-07T00:17:59.735Z,78.40
2017-11-07T00:20:27.991Z,78.00
2017-11-07T00:22:56.236Z,78.80
2017-11-07T00:25:24.499Z,79.70
2017-11-07T00:27:53.146Z,79.80
2017-11-07T00:30:21.385Z,79.80
2017-11-07T00:32:49.677Z,79.80
2017-11-07T00:35:17.933Z,78.80
2017-11-07T00:37:46.187Z,79.50
2017-11-07T00:40:14.832Z,73.90
2017-11-07T00:42:43.077Z,73.90
2017-11-07T00:45:11.316Z,72.80
2017-11-07T00:47:40.005Z,71.20
2017-11-07T00:50:08.641Z,71.80
2017-11-07T00:52:36.888Z,71.80
2017-11-07T00:55:05.202Z,70.50
2017-11-07T00:57:33.428Z,71.60
2017-11-07T01:00:01.697Z,72.10
2017-11-07T01:02:30.345Z,71.90
2017-11-07T01:04:58.595Z,71.90
2017-11-07T01:07:26.842Z,70.90
2017-11-07T01:09:55.242Z,71.00
2017-11-07T01:12:23.472Z,71.40
2017-11-07T01:14:52.340Z,73.20
2017-11-07T01:17:20.625Z,73.20
2017-11-07T01:19:48.855Z,74.80
2017-11-07T01:22:17.133Z,73.90
2017-11-07T01:24:45.892Z,75.70
2017-11-07T01:27:14.537Z,77.50
2017-11-07T01:29:42.798Z,77.50
2017-11-07T01:32:11.084Z,77.70
2017-11-07T01:34:39.321Z,79.30
2017-11-07T01:37:07.556Z,75.50
2017-11-07T01:39:35.829Z,71.20
2017-11-07T01:42:04.075Z,70.30
2017-11-07T01:44:32.752Z,69.80
2017-11-07T01:47:01.065Z,68.90
2017-11-07T01:49:29.313Z,69.60
2017-11-07T01:51:57.552Z,70.00
2017-11-07T01:54:25.835Z,71.80
2017-11-07T01:56:54.098Z,72.80
2017-11-07T01:59:22.748Z,77.10
2017-11-07T02:01:51.076Z,77.30
2017-11-07T02:04:19.318Z,77.00
2017-11-07T02:06:47.964Z,78.90
2017-11-07T02:09:16.981Z,79.10
2017-11-07T02:11:45.227Z,80.90
2017-11-07T02:14:13.735Z,79.50
2017-11-07T02:16:42.011Z,74.50
2017-11-07T02:19:10.250Z,70.00
2017-11-07T02:21:38.482Z,70.50
2017-11-07T02:24:07.172Z,66.70
2017-11-07T02:26:35.811Z,65.70
2017-11-07T02:29:04.054Z,65.70
2017-11-07T02:31:32.301Z,63.00
2017-11-07T02:34:01.268Z,62.10
2017-11-07T02:36:29.530Z,62.10
2017-11-07T02:38:57.831Z,64.90
2017-11-07T02:41:26.060Z,67.80
2017-11-07T02:43:54.313Z,68.70
2017-11-07T02:46:23.698Z,71.90
2017-11-07T02:48:52.287Z,73.40
2017-11-07T02:51:20.929Z,76.30
2017-11-07T02:53:49.178Z,76.30
2017-11-07T02:56:17.415Z,76.30
2017-11-07T02:58:45.665Z,76.40
2017-11-07T03:01:13.933Z,77.50
2017-11-07T03:03:42.195Z,78.20
2017-11-07T03:06:10.434Z,79.30
2017-11-07T03:08:39.108Z,79.10
2017-11-07T03:11:08.567Z,78.00
2017-11-07T03:13:36.805Z,78.00
2017-11-07T03:16:05.128Z,76.40
2017-11-07T03:18:33.356Z,77.70
2017-11-07T03:21:01.635Z,79.10
2017-11-07T03:23:29.906Z,78.40
2017-11-07T03:25:58.220Z,79.30
2017-11-07T03:28:26.457Z,79.30
2017-11-07T03:30:55.116Z,78.90
2017-11-07T03:33:23.360Z,78.90
2017-11-07T03:35:51.592Z,78.60
2017-11-07T03:38:19.888Z,79.10
2017-11-07T03:40:48.425Z,80.40
2017-11-07T03:43:16.666Z,79.70
2017-11-07T03:45:44.942Z,80.40
2017-11-07T03:48:13.193Z,81.50
2017-11-07T03:50:41.433Z,82.40
2017-11-07T03:53:10.096Z,83.40
2017-11-07T03:55:38.329Z,83.40
2017-11-07T03:58:06.701Z,83.60
2017-11-07T04:00:35.149Z,83.60
2017-11-07T04:03:03.391Z,83.30
2017-11-07T04:05:32.552Z,83.80
2017-11-07T04:08:00.841Z,84.70
2017-11-07T04:10:29.108Z,85.20
2017-11-07T04:12:57.352Z,85.60
2017-11-07T04:15:26.028Z,85.40
2017-11-07T04:17:54.498Z,85.40
2017-11-07T04:20:22.765Z,85.10
2017-11-07T04:22:51.006Z,85.60
2017-11-07T04:25:19.244Z,85.10
2017-11-07T04:27:47.877Z,83.80
2017-11-07T04:30:16.150Z,83.60
2017-11-07T04:32:44.406Z,82.70
2017-11-07T04:35:12.660Z,81.80
2017-11-07T04:37:40.933Z,81.30
2017-11-07T04:40:09.585Z,81.60
2017-11-07T04:42:37.814Z,81.60
2017-11-07T04:45:06.350Z,82.50
2017-11-07T04:47:34.625Z,82.70
2017-11-07T04:50:02.861Z,83.10
2017-11-07T04:52:31.125Z,82.40
2017-11-07T04:54:59.355Z,82.00
2017-11-07T04:57:27.595Z,82.20
2017-11-07T04:59:55.856Z,82.20
2017-11-07T05:02:24.097Z,82.00
2017-11-07T05:04:52.347Z,81.10
2017-11-07T05:07:20.631Z,80.70
2017-11-07T05:09:48.874Z,80.60
2017-11-07T05:12:17.117Z,80.20
2017-11-07T05:14:45.828Z,80.20
2017-11-07T05:17:14.467Z,80.40
2017-11-07T05:19:42.800Z,78.90
2017-11-07T05:22:11.203Z,78.60
2017-11-07T05:24:39.440Z,79.10
2017-11-07T05:27:08.075Z,80.40
2017-11-07T05:29:36.456Z,78.00
2017-11-07T05:32:05.549Z,76.10
2017-11-07T05:34:33.845Z,76.10
2017-11-07T05:37:02.120Z,77.30
2017-11-07T05:39:30.772Z,72.80
2017-11-07T05:41:59.025Z,72.80
2017-11-07T05:44:27.276Z,74.30
2017-11-07T05:46:55.820Z,73.70
2017-11-07T05:49:24.114Z,70.30
2017-11-07T05:51:52.341Z,67.40
2017-11-07T05:54:20.567Z,68.50
2017-11-07T05:56:49.234Z,67.10
2017-11-07T05:59:18.380Z,67.10
2017-11-07T06:01:46.624Z,68.00
2017-11-07T06:04:15.284Z,69.40
2017-11-07T06:06:43.540Z,69.40
2017-11-07T06:09:11.801Z,70.30
2017-11-07T06:11:40.077Z,71.60
2017-11-07T06:14:08.367Z,71.80
2017-11-07T06:16:36.626Z,73.00
2017-11-07T06:19:04.910Z,73.60
2017-11-07T06:21:33.157Z,74.80
2017-11-07T06:24:02.109Z,73.40
2017-11-07T06:26:30.384Z,73.40
2017-11-07T06:28:58.613Z,72.70
2017-11-07T06:31:27.085Z,71.80
2017-11-07T06:33:55.675Z,74.30
2017-11-07T06:36:23.901Z,70.90
2017-11-07T06:38:52.141Z,66.40
2017-11-07T06:41:20.418Z,64.80
2017-11-07T06:43:49.321Z,63.10
2017-11-07T06:46:17.574Z,61.50
2017-11-07T06:48:45.827Z,62.80
2017-11-07T06:51:14.073Z,64.60
2017-11-07T06:53:42.432Z,66.70
2017-11-07T06:56:10.692Z,69.10
2017-11-07T06:58:38.929Z,69.40
2017-11-07T07:01:07.595Z,63.00
2017-11-07T07:03:35.866Z,63.00
2017-11-07T07:06:04.133Z,66.00
2017-11-07T07:08:32.716Z,66.20
2017-11-07T07:11:01.685Z,64.80
2017-11-07T07:13:29.936Z,66.00
2017-11-07T07:15:58.559Z,65.30
2017-11-07T07:18:26.797Z,65.80
2017-11-07T07:20:55.169Z,66.00
2017-11-07T07:23:23.394Z,64.80
2017-11-07T07:25:51.660Z,65.10
2017-11-07T07:28:20.029Z,68.20
2017-11-07T07:30:48.270Z,66.90
2017-11-07T07:33:17.008Z,64.90
2017-11-07T07:35:45.271Z,61.70
2017-11-07T07:38:13.583Z,62.20
2017-11-07T07:40:41.878Z,63.00
2017-11-07T07:43:10.120Z,64.60
2017-11-07T07:45:38.376Z,64.60
2017-11-07T07:48:06.631Z,64.60
2017-11-07T07:50:34.871Z,63.90
2017-11-07T07:53:04.104Z,63.90
2017-11-07T07:55:32.347Z,63.90
2017-11-07T07:58:01.101Z,65.50
2017-11-07T08:00:29.343Z,65.50
2017-11-07T08:03:01.942Z,66.70
2017-11-07T08:05:30.419Z,67.40
2017-11-07T08:07:58.679Z,67.60
2017-11-07T08:10:26.924Z,68.30
2017-11-07T08:12:55.585Z,69.40
2017-11-07T08:15:24.221Z,93.80
2017-11-07T08:17:52.450Z,93.80
2017-11-07T08:20:21.141Z,61.90
2017-11-07T08:22:49.776Z,64.60
2017-11-07T08:25:18.575Z,64.60
2017-11-07T08:27:48.483Z,64.60
2017-11-07T08:30:16.704Z,63.00
2017-11-07T08:32:45.398Z,57.90
2017-11-07T08:35:14.030Z,55.40
2017-11-07T08:37:42.277Z,55.20
2017-11-07T08:40:10.677Z,53.00
2017-11-07T08:42:39.370Z,49.00
2017-11-07T08:45:07.611Z,49.00
2017-11-07T08:47:35.908Z,52.40
2017-11-07T08:50:04.166Z,44.00
2017-11-07T08:52:32.405Z,45.90
2017-11-07T08:55:00.756Z,41.50
2017-11-07T08:57:29.000Z,40.00
2017-11-07T08:59:57.280Z,43.40
2017-11-07T09:02:25.585Z,39.00
2017-11-07T09:04:53.833Z,40.50
2017-11-07T09:07:22.117Z,40.60
2017-11-07T09:09:50.398Z,37.90
2017-11-07T09:12:18.920Z,40.60
2017-11-07T09:14:47.201Z,36.90
2017-11-07T09:17:15.548Z,35.30
2017-11-07T09:19:43.908Z,42.80
2017-11-07T09:22:12.221Z,35.60
2017-11-07T09:24:41.214Z,40.30
2017-11-07T09:27:09.517Z,40.30
2017-11-07T09:29:37.847Z,32.90
2017-11-07T09:32:06.162Z,33.80
2017-11-07T09:34:34.814Z,33.20
2017-11-07T09:37:03.140Z,33.20
2017-11-07T09:39:31.402Z,32.60
2017-11-07T09:42:00.120Z,33.50
2017-11-07T09:44:28.782Z,33.50
2017-11-07T09:46:58.158Z,31.30
2017-11-07T09:49:26.850Z,31.30
2017-11-07T09:51:55.713Z,32.20
2017-11-07T09:54:23.955Z,36.00
2017-11-07T09:56:52.226Z,35.10
2017-11-07T09:59:21.192Z,36.20
2017-11-07T10:01:49.837Z,37.60
2017-11-07T10:04:19.298Z,37.60
2017-11-07T10:06:48.718Z,37.50
2017-11-07T10:09:17.014Z,36.30
2017-11-07T10:11:45.349Z,37.80
2017-11-07T10:14:14.119Z,38.40
2017-11-07T10:16:42.412Z,38.40
2017-11-07T10:19:10.728Z,38.50
2017-11-07T10:21:39.063Z,37.40
2017-11-07T10:24:08.124Z,37.50
2017-11-07T10:26:36.369Z,38.50
2017-11-07T10:29:04.712Z,39.30
2017-11-07T10:31:33.010Z,38.50
2017-11-07T10:34:01.369Z,38.40
2017-11-07T10:36:29.684Z,38.20
2017-11-07T10:38:57.984Z,40.00
2017-11-07T10:41:26.249Z,36.30
2017-11-07T10:43:54.535Z,36.20
2017-11-07T10:46:22.794Z,36.00
2017-11-07T10:48:51.053Z,36.90
2017-11-07T10:51:19.331Z,37.90
2017-11-07T10:53:48.753Z,41.60
2017-11-07T10:56:17.082Z,37.60
2017-11-07T10:58:45.735Z,35.40
2017-11-07T11:01:15.542Z,35.40
2017-11-07T11:03:43.824Z,33.80
2017-11-07T11:06:12.079Z,34.70
2017-11-07T11:08:40.420Z,35.10
2017-11-07T11:11:08.694Z,40.30
2017-11-07T11:13:36.942Z,35.30
2017-11-07T11:16:05.193Z,35.90
2017-11-07T11:18:33.504Z,35.10
2017-11-07T11:21:02.145Z,36.20
2017-11-07T11:23:30.653Z,36.20
2017-11-07T11:25:58.920Z,46.20
2017-11-07T11:28:27.176Z,33.40
2017-11-07T11:30:55.417Z,34.20
2017-11-07T11:33:23.697Z,32.80
2017-11-07T11:35:51.945Z,32.90
2017-11-07T11:38:20.590Z,30.40
2017-11-07T11:40:48.862Z,30.40
2017-11-07T11:43:17.117Z,35.00
2017-11-07T11:45:45.350Z,39.30
2017-11-07T11:48:13.996Z,31.00
2017-11-07T11:50:42.241Z,30.80
2017-11-07T11:53:10.528Z,31.70
2017-11-07T11:55:38.761Z,35.60
2017-11-07T11:58:07.013Z,38.40
2017-11-07T12:00:35.326Z,41.90
2017-11-07T12:03:04.006Z,43.10
2017-11-07T12:05:33.108Z,45.50
2017-11-07T12:08:02.004Z,46.80
2017-11-07T12:10:30.412Z,46.80
2017-11-07T12:12:58.762Z,48.40
2017-11-07T12:15:27.416Z,47.80
2017-11-07T12:17:55.673Z,47.80
2017-11-07T12:20:23.928Z,48.10
2017-11-07T12:22:52.325Z,49.20
2017-11-07T12:25:20.654Z,49.30
2017-11-07T12:27:49.131Z,49.60
2017-11-07T12:30:17.615Z,50.40
2017-11-07T12:32:45.855Z,51.50
2017-11-07T12:35:14.220Z,49.80
2017-11-07T12:37:42.517Z,49.50
2017-11-07T12:40:10.806Z,50.80
2017-11-07T12:42:39.045Z,52.10
2017-11-07T12:45:07.294Z,51.40
2017-11-07T12:47:35.642Z,53.60
2017-11-07T12:50:16.312Z,51.10
2017-11-07T12:52:44.605Z,51.10
2017-11-07T12:55:12.877Z,51.80
2017-11-07T12:57:41.114Z,53.20
2017-11-07T13:00:09.486Z,53.30
2017-11-07T13:02:37.744Z,53.90
2017-11-07T13:05:06.011Z,55.10
2017-11-07T13:07:34.299Z,55.70
2017-11-07T13:10:03.208Z,56.00
2017-11-07T13:12:31.508Z,56.60
2017-11-07T13:15:00.195Z,55.10
2017-11-07T13:17:28.851Z,54.50
2017-11-07T13:19:57.101Z,54.50
2017-11-07T13:22:25.521Z,54.10
2017-11-07T13:24:53.793Z,55.40
2017-11-07T13:27:22.436Z,55.70
2017-11-07T13:29:50.709Z,55.70
2017-11-07T13:32:18.967Z,55.40
2017-11-07T13:34:47.261Z,55.80
2017-11-07T13:37:15.505Z,55.70
2017-11-07T13:39:44.148Z,56.40
2017-11-07T13:42:12.401Z,56.40
2017-11-07T13:44:40.653Z,54.60
2017-11-07T13:47:08.908Z,56.10
2017-11-07T13:49:37.209Z,57.00
2017-11-07T13:52:05.460Z,58.00
2017-11-07T13:54:34.095Z,59.40
2017-11-07T13:57:02.372Z,59.40
2017-11-07T13:59:30.642Z,57.30
2017-11-07T14:01:58.897Z,57.60
2017-11-07T14:04:27.184Z,58.00
2017-11-07T14:06:55.486Z,58.90
2017-11-07T14:09:23.728Z,59.50
2017-11-07T14:11:51.982Z,59.70
2017-11-07T14:14:20.256Z,60.30
2017-11-07T14:16:48.903Z,60.40
2017-11-07T14:19:17.184Z,60.40
2017-11-07T14:21:45.456Z,61.20
2017-11-07T14:24:14.490Z,61.20
2017-11-07T14:26:42.782Z,60.80
2017-11-07T14:29:11.313Z,61.70
2017-11-07T14:31:39.556Z,62.20
2017-11-07T14:34:07.836Z,62.20
2017-11-07T14:36:36.099Z,62.60
2017-11-07T14:39:04.478Z,60.80
2017-11-07T14:41:32.727Z,60.40
2017-11-07T14:44:00.968Z,58.30
2017-11-07T14:46:29.342Z,58.50
2017-11-07T14:48:58.068Z,59.80
2017-11-07T14:51:26.696Z,59.70
2017-11-07T14:53:55.121Z,59.70
2017-11-07T14:56:23.993Z,60.60
2017-11-07T14:58:52.277Z,62.10
2017-11-07T15:01:20.635Z,62.20
2017-11-07T15:03:49.636Z,62.20
2017-11-07T15:06:17.907Z,62.40
2017-11-07T15:08:46.188Z,62.20
2017-11-07T15:11:14.432Z,62.40
2017-11-07T15:13:42.695Z,62.80
2017-11-07T15:16:10.991Z,63.10
2017-11-07T15:18:39.241Z,63.90
2017-11-07T15:21:07.501Z,62.80
2017-11-07T15:23:36.148Z,62.60
2017-11-07T15:26:04.410Z,62.60
2017-11-07T15:28:32.682Z,62.20
2017-11-07T15:31:00.949Z,61.90
2017-11-07T15:33:29.191Z,61.70
2017-11-07T15:35:57.435Z,62.10
2017-11-07T15:38:26.103Z,62.10
2017-11-07T15:40:54.328Z,62.40
2017-11-07T15:43:22.572Z,62.80
2017-11-07T15:45:51.174Z,63.00
2017-11-07T15:48:19.515Z,63.30
2017-11-07T15:50:47.751Z,63.90
2017-11-07T15:53:16.113Z,63.50
2017-11-07T15:55:45.080Z,65.30
2017-11-07T15:58:13.668Z,65.30
2017-11-07T16:00:41.940Z,65.50
2017-11-07T16:03:10.181Z,65.70
2017-11-07T16:05:38.425Z,65.70
2017-11-07T16:08:06.749Z,65.50
2017-11-07T16:10:35.034Z,65.80
2017-11-07T16:13:03.301Z,66.00
2017-11-07T16:15:31.791Z,65.80
2017-11-07T16:18:00.050Z,66.40
2017-11-07T16:20:28.301Z,66.60
2017-11-07T16:22:56.634Z,66.20
2017-11-07T16:25:24.893Z,66.60
2017-11-07T16:27:53.137Z,66.70
2017-11-07T16:30:21.387Z,66.60
2017-11-07T16:32:49.641Z,67.10
2017-11-07T16:35:17.964Z,67.40
2017-11-07T16:37:46.266Z,67.30
2017-11-07T16:40:14.756Z,67.40
2017-11-07T16:42:43.125Z,67.40
2017-11-07T16:45:11.385Z,67.80
2017-11-07T16:47:39.617Z,67.80
2017-11-07T16:50:08.300Z,68.20
2017-11-07T16:52:36.924Z,68.30
2017-11-07T16:55:05.216Z,68.30
2017-11-07T16:57:33.521Z,68.30
2017-11-07T17:00:01.762Z,68.00
2017-11-07T17:02:30.059Z,68.50
2017-11-07T17:04:58.368Z,67.80
2017-11-07T17:07:27.250Z,67.80
2017-11-07T17:09:55.642Z,67.80
2017-11-07T17:12:24.287Z,67.80
2017-11-07T17:14:52.566Z,67.80
2017-11-07T17:17:20.894Z,67.80
2017-11-07T17:19:49.140Z,68.00
2017-11-07T17:22:17.784Z,67.40
2017-11-07T17:24:46.044Z,67.40
2017-11-07T17:27:14.434Z,67.60
2017-11-07T17:29:42.671Z,68.30
2017-11-07T17:32:11.317Z,68.90
2017-11-07T17:34:39.777Z,68.90
2017-11-07T17:37:08.025Z,68.70
2017-11-07T17:39:36.314Z,69.60
2017-11-07T17:42:04.563Z,69.40
2017-11-07T17:44:33.194Z,68.90
2017-11-07T17:47:01.473Z,68.90
2017-11-07T17:49:29.732Z,67.80
2017-11-07T17:51:57.993Z,67.80
2017-11-07T17:54:26.272Z,67.60
2017-11-07T17:56:54.733Z,67.80
2017-11-07T17:59:23.016Z,67.60
2017-11-07T18:01:51.294Z,67.10
2017-11-07T18:04:19.574Z,67.10
2017-11-07T18:06:47.846Z,66.40
2017-11-07T18:09:16.405Z,66.60
2017-11-07T18:11:46.142Z,66.90
2017-11-07T18:14:14.849Z,67.10
2017-11-07T18:16:43.105Z,67.10
2017-11-07T18:19:11.356Z,67.30
2017-11-07T18:21:40.062Z,67.80
2017-11-07T18:24:08.303Z,67.80
2017-11-07T18:26:36.565Z,68.00
2017-11-07T18:29:05.434Z,67.60
2017-11-07T18:31:33.672Z,68.20
2017-11-07T18:34:01.926Z,68.70
2017-11-07T18:36:30.617Z,69.60
2017-11-07T18:38:59.321Z,71.90
2017-11-07T18:41:27.578Z,72.10
2017-11-07T18:43:55.915Z,73.40
2017-11-07T18:46:24.289Z,74.60
2017-11-07T18:48:52.556Z,74.50
2017-11-07T18:51:20.836Z,75.50
2017-11-07T18:53:49.297Z,74.50
2017-11-07T18:56:17.549Z,75.70
2017-11-07T18:58:45.903Z,76.10
2017-11-07T19:01:14.208Z,75.40
2017-11-07T19:03:42.945Z,75.70
2017-11-07T19:06:11.262Z,75.70
2017-11-07T19:08:40.110Z,75.00
2017-11-07T19:11:09.287Z,75.00
2017-11-07T19:13:37.577Z,74.50
2017-11-07T19:16:05.829Z,75.20
2017-11-07T19:18:34.124Z,75.20
2017-11-07T19:21:02.425Z,76.10
2017-11-07T19:23:30.721Z,76.10
2017-11-07T19:25:59.236Z,77.10
2017-11-07T19:28:28.052Z,77.10
2017-11-07T19:30:56.401Z,77.10
2017-11-07T19:33:24.698Z,75.20
2017-11-07T19:35:52.971Z,75.40
2017-11-07T19:38:21.252Z,75.40
2017-11-07T19:40:49.512Z,76.30
2017-11-07T19:43:17.778Z,75.70
2017-11-07T19:45:46.033Z,77.70
2017-11-07T19:48:14.711Z,76.80
2017-11-07T19:50:42.958Z,76.80
2017-11-07T19:53:11.780Z,76.60
2017-11-07T19:55:40.238Z,77.70
2017-11-07T19:58:08.654Z,78.90
2017-11-07T20:00:36.947Z,78.00
2017-11-07T20:03:05.248Z,77.10
2017-11-07T20:05:34.797Z,77.30
2017-11-07T20:08:03.487Z,76.30
2017-11-07T20:10:32.153Z,76.30
2017-11-07T20:13:00.857Z,77.90
2017-11-07T20:15:29.302Z,77.90
2017-11-07T20:17:58.609Z,77.90
2017-11-07T20:20:26.932Z,77.70
2017-11-07T20:22:55.202Z,79.10
2017-11-07T20:25:23.879Z,76.80
2017-11-07T20:27:52.559Z,77.00
2017-11-07T20:30:20.842Z,77.00
2017-11-07T20:32:49.197Z,77.70
2017-11-07T20:35:18.436Z,79.30
2017-11-07T20:37:47.990Z,77.70
2017-11-07T20:40:16.338Z,78.60
2017-11-07T20:42:44.608Z,78.60
2017-11-07T20:45:13.237Z,78.40
2017-11-07T20:47:41.485Z,78.00
2017-11-07T20:50:09.759Z,79.50
2017-11-07T20:52:38.637Z,78.60
2017-11-07T20:55:06.957Z,78.80
2017-11-07T20:57:35.630Z,79.70
2017-11-07T21:00:03.991Z,79.70
2017-11-07T21:02:32.301Z,77.30
2017-11-07T21:05:00.587Z,80.70
2017-11-07T21:07:35.491Z,79.10
2017-11-07T21:10:04.380Z,79.70
2017-11-07T21:12:32.768Z,80.20
2017-11-07T21:15:01.389Z,82.00
2017-11-07T21:17:31.276Z,79.80
2017-11-07T21:20:00.078Z,79.10
2017-11-07T21:22:28.716Z,79.10
2017-11-07T21:24:57.482Z,79.70
2017-11-07T21:27:26.023Z,79.50
2017-11-07T21:29:54.549Z,80.00
2017-11-07T21:32:23.619Z,79.70
2017-11-07T21:34:52.547Z,79.70
2017-11-07T21:37:20.891Z,79.50
2017-11-07T21:39:49.575Z,79.50
2017-11-07T21:42:18.438Z,79.50
2017-11-07T21:44:46.998Z,79.50
2017-11-07T21:47:15.263Z,79.30
2017-11-07T21:49:43.540Z,78.80
2017-11-07T21:52:11.839Z,78.20
2017-11-07T21:54:40.090Z,78.80
2017-11-07T21:57:08.342Z,78.40
2017-11-07T21:59:36.621Z,79.50
2017-11-07T22:02:04.885Z,79.80
2017-11-07T22:04:33.199Z,81.30
2017-11-07T22:07:01.449Z,80.40
2017-11-07T22:09:29.701Z,80.20
2017-11-07T22:11:58.380Z,81.30
2017-11-07T22:14:26.657Z,81.30
2017-11-07T22:16:55.435Z,80.00
2017-11-07T22:19:24.125Z,80.40
2017-11-07T22:21:52.688Z,80.40
2017-11-07T22:24:23.902Z,80.60
2017-11-07T22:26:52.162Z,81.60
2017-11-07T22:29:21.901Z,81.30
2017-11-07T22:31:50.149Z,81.30
2017-11-07T22:34:18.403Z,80.00
2017-11-07T22:36:46.935Z,80.40
2017-11-07T22:39:15.221Z,81.10
2017-11-07T22:41:43.469Z,81.80
2017-11-07T22:44:11.723Z,81.50
2017-11-07T22:46:40.133Z,81.50
2017-11-07T22:49:08.395Z,80.00
2017-11-07T22:51:36.706Z,80.20
2017-11-07T22:54:04.964Z,80.40
2017-11-07T22:56:33.235Z,80.20
2017-11-07T22:59:01.518Z,78.90
2017-11-07T23:01:30.746Z,78.60
2017-11-07T23:03:59.119Z,77.00
2017-11-07T23:06:27.438Z,77.00
2017-11-07T23:08:55.680Z,76.40
2017-11-07T23:11:23.940Z,76.40
2017-11-07T23:13:52.197Z,76.40
2017-11-07T23:16:20.656Z,77.10
2017-11-07T23:18:49.056Z,77.70
2017-11-07T23:21:18.560Z,77.00
2017-11-07T23:23:48.873Z,77.70
2017-11-07T23:26:17.744Z,77.10
2017-11-07T23:28:46.489Z,76.10
2017-11-07T23:31:15.404Z,76.10
2017-11-07T23:33:44.609Z,76.40
2017-11-07T23:36:14.873Z,76.40
2017-11-07T23:38:44.253Z,76.80
2017-11-07T23:41:13.558Z,76.80
2017-11-07T23:43:42.999Z,76.60
2017-11-07T23:46:12.079Z,76.30
2017-11-07T23:48:41.457Z,76.30
2017-11-07T23:51:11.470Z,76.60
2017-11-07T23:53:40.873Z,77.10
2017-11-07T23:56:09.554Z,77.00
2017-11-07T23:58:38.621Z,77.10
